Time;durP1;ratioP1;P1;durP2;ratioP2;P2;SDS_P1;SDS_P2;PMS_P1;PMS_P2;Temp;Humidity;BMP_temperature;BMP_pressure;BME280_temperature;BME280_humidity;BME280_pressure;Samples;Min_cycle;Max_cycle;Signal;HPM_P1;HPM_P2
2021/08/29 00:01:24;;;;;;;10.38;4.82;;;13.00;99.90;;;;;;4921406;29;20466;-92
2021/08/29 00:03:49;;;;;;;11.00;5.18;;;13.00;99.90;;;;;;4922735;29;20031;-93
2021/08/29 00:06:15;;;;;;;10.98;4.95;;;13.00;99.90;;;;;;4924174;29;20062;-92
2021/08/29 00:08:41;;;;;;;12.00;5.03;;;13.00;99.90;;;;;;4926587;29;20067;-93
2021/08/29 00:11:07;;;;;;;9.18;5.03;;;13.00;99.90;;;;;;4926633;29;20032;-93
2021/08/29 00:13:33;;;;;;;12.20;5.32;;;13.00;99.90;;;;;;4926306;29;20063;-92
2021/08/29 00:15:59;;;;;;;10.15;4.95;;;13.00;99.90;;;;;;4926005;29;20032;-93
2021/08/29 00:18:24;;;;;;;10.10;4.93;;;13.00;99.90;;;;;;4920920;29;20063;-93
2021/08/29 00:20:51;;;;;;;11.73;5.53;;;13.00;99.90;;;;;;4921167;29;20044;-93
2021/08/29 00:23:17;;;;;;;7.93;4.78;;;12.90;99.90;;;;;;4923222;29;20079;-93
2021/08/29 00:25:43;;;;;;;13.75;5.70;;;12.90;99.90;;;;;;4926220;29;20024;-93
2021/08/29 00:28:09;;;;;;;10.25;5.30;;;12.80;99.90;;;;;;4926057;29;20504;-93
2021/08/29 00:30:35;;;;;;;10.98;5.22;;;12.80;99.90;;;;;;4924094;29;20039;-92
2021/08/29 00:33:00;;;;;;;11.63;4.82;;;12.70;99.90;;;;;;4923527;29;20501;-93
2021/08/29 00:35:26;;;;;;;8.02;4.55;;;12.70;99.90;;;;;;4922357;29;20401;-93
2021/08/29 00:37:52;;;;;;;10.00;4.28;;;12.70;99.90;;;;;;4924376;29;20040;-92
2021/08/29 00:40:18;;;;;;;11.68;5.55;;;12.60;99.90;;;;;;4924938;29;20046;-92
2021/08/29 00:42:52;;;;;;;14.73;5.43;;;12.60;99.90;;;;;;4923358;29;20055;-92
2021/08/29 00:45:21;;;;;;;10.98;5.07;;;12.60;99.90;;;;;;4922808;29;20060;-92
2021/08/29 00:47:47;;;;;;;9.80;4.90;;;12.60;99.90;;;;;;4922655;29;20034;-93
2021/08/29 00:50:13;;;;;;;10.77;4.57;;;12.60;99.90;;;;;;4920555;29;20111;-93
2021/08/29 00:52:39;;;;;;;9.93;4.85;;;12.60;99.90;;;;;;4920459;29;20031;-93
2021/08/29 00:55:07;;;;;;;11.38;4.45;;;12.60;99.90;;;;;;4920500;29;20032;-93
2021/08/29 00:57:33;;;;;;;12.63;5.38;;;12.50;99.90;;;;;;4920359;29;20035;-93
2021/08/29 00:59:59;;;;;;;9.25;5.00;;;12.50;99.90;;;;;;4923660;29;20031;-93
2021/08/29 01:02:26;;;;;;;10.57;5.32;;;12.40;99.90;;;;;;4922031;29;20578;-92
2021/08/29 01:05:04;;;;;;;8.35;4.90;;;12.40;99.90;;;;;;4920209;29;20091;-92
2021/08/29 01:07:38;;;;;;;9.23;4.53;;;12.40;99.90;;;;;;4920199;29;20051;-92
2021/08/29 01:10:10;;;;;;;10.55;5.15;;;12.30;99.90;;;;;;4920675;29;20059;-93
2021/08/29 01:12:38;;;;;;;8.00;4.80;;;12.30;99.90;;;;;;4922250;29;20024;-93
2021/08/29 01:15:06;;;;;;;9.63;6.00;;;12.30;99.90;;;;;;4920155;29;20035;-93
2021/08/29 01:17:35;;;;;;;12.63;5.30;;;12.20;99.90;;;;;;4921868;29;20113;-90
2021/08/29 01:20:23;;;;;;;9.20;5.30;;;12.20;99.90;;;;;;4937677;29;20020;-92
2021/08/29 01:22:50;;;;;;;8.30;4.97;;;12.20;99.90;;;;;;4938367;29;20108;-93
2021/08/29 01:25:30;;;;;;;11.32;5.45;;;12.20;99.90;;;;;;4943054;29;20016;-92
2021/08/29 01:28:01;;;;;;;7.63;5.15;;;12.20;99.90;;;;;;4928175;29;20505;-93
2021/08/29 01:30:28;;;;;;;13.88;5.90;;;12.10;99.90;;;;;;4920045;29;20039;-93
2021/08/29 01:32:58;;;;;;;14.02;5.90;;;12.10;99.90;;;;;;4923042;29;20059;-93
2021/08/29 01:35:24;;;;;;;11.77;5.80;;;12.10;99.90;;;;;;4925496;29;20028;-92
2021/08/29 01:37:51;;;;;;;14.32;5.47;;;12.00;99.90;;;;;;4921400;29;20124;-92
2021/08/29 01:40:17;;;;;;;9.57;4.93;;;12.00;99.90;;;;;;4919846;29;20023;-93
2021/08/29 01:42:44;;;;;;;11.25;4.80;;;12.00;99.90;;;;;;4919887;29;20036;-93
2021/08/29 01:45:10;;;;;;;11.48;5.57;;;11.90;99.90;;;;;;4921360;29;20031;-93
2021/08/29 01:47:36;;;;;;;11.02;5.28;;;11.90;99.90;;;;;;4925695;29;20031;-93
2021/08/29 01:50:03;;;;;;;9.80;5.25;;;11.90;99.90;;;;;;4922485;29;20061;-93
2021/08/29 01:52:29;;;;;;;10.13;5.30;;;11.80;99.90;;;;;;4923734;29;20490;-92
2021/08/29 01:54:55;;;;;;;10.65;6.07;;;11.80;99.90;;;;;;4925100;29;20046;-92
2021/08/29 01:57:20;;;;;;;12.30;5.07;;;11.70;99.90;;;;;;4925045;29;20035;-93
2021/08/29 01:59:46;;;;;;;9.82;4.65;;;11.70;99.90;;;;;;4925206;29;20059;-92
2021/08/29 02:02:13;;;;;;;12.73;5.03;;;11.60;99.90;;;;;;4924911;29;20470;-93
2021/08/29 02:04:40;;;;;;;10.57;4.97;;;11.70;99.90;;;;;;4923483;29;20036;-93
2021/08/29 02:07:30;;;;;;;14.85;5.55;;;11.60;99.90;;;;;;4923403;29;20104;-92
2021/08/29 02:10:03;;;;;;;13.35;6.38;;;11.60;99.90;;;;;;4912871;29;20050;-92
2021/08/29 02:12:32;;;;;;;8.60;5.40;;;11.60;99.90;;;;;;4928955;29;20028;-93
2021/08/29 02:15:06;;;;;;;9.90;5.55;;;11.60;99.90;;;;;;4923191;29;20036;-92
2021/08/29 02:17:34;;;;;;;8.70;5.18;;;11.60;99.90;;;;;;4923587;29;20023;-92
2021/08/29 02:20:05;;;;;;;9.75;5.07;;;11.50;99.90;;;;;;4923482;29;20058;-93
2021/08/29 02:22:33;;;;;;;12.43;5.75;;;11.60;99.90;;;;;;4925005;29;20032;-92
2021/08/29 02:25:01;;;;;;;14.15;6.07;;;11.60;99.90;;;;;;4926260;29;20028;-93
2021/08/29 02:27:28;;;;;;;10.95;5.40;;;11.70;99.90;;;;;;4926502;29;20034;-92
2021/08/29 02:29:53;;;;;;;13.35;5.85;;;11.80;99.90;;;;;;4922938;29;20134;-93
2021/08/29 02:32:20;;;;;;;14.52;5.95;;;11.90;99.90;;;;;;4924155;29;20067;-92
2021/08/29 02:34:48;;;;;;;15.02;6.00;;;12.00;99.90;;;;;;4986922;23;20075;-94
2021/08/29 02:37:15;;;;;;;11.55;6.80;;;12.00;99.90;;;;;;4909101;29;20032;-91
2021/08/29 02:39:41;;;;;;;14.13;6.40;;;12.10;99.90;;;;;;4908939;29;20032;-92
2021/08/29 02:42:09;;;;;;;15.48;6.38;;;12.20;99.90;;;;;;4909254;29;20027;-92
2021/08/29 02:44:41;;;;;;;19.20;7.85;;;12.30;99.90;;;;;;4910182;29;20020;-91
2021/08/29 02:47:07;;;;;;;19.35;6.78;;;12.30;99.90;;;;;;4910127;29;20024;-93
2021/08/29 02:49:34;;;;;;;15.63;7.53;;;12.40;99.90;;;;;;4909045;29;20028;-92
2021/08/29 02:52:00;;;;;;;15.55;7.28;;;12.40;99.90;;;;;;4909641;29;20028;-92
2021/08/29 02:54:28;;;;;;;17.02;7.53;;;12.40;99.90;;;;;;4909902;29;20028;-93
2021/08/29 02:56:57;;;;;;;16.83;7.60;;;12.40;99.90;;;;;;4909544;29;20035;-92
2021/08/29 02:59:23;;;;;;;15.07;7.25;;;12.50;99.90;;;;;;4909277;29;20118;-92
2021/08/29 03:01:49;;;;;;;14.32;7.45;;;12.50;99.90;;;;;;4908914;29;20474;-93
2021/08/29 03:04:14;;;;;;;18.02;7.78;;;12.50;99.90;;;;;;4909223;29;20036;-93
2021/08/29 03:06:41;;;;;;;20.90;8.63;;;12.50;99.90;;;;;;4908695;29;20036;-93
2021/08/29 03:09:07;;;;;;;20.05;7.88;;;12.50;99.90;;;;;;4909882;29;20106;-93
2021/08/29 03:11:33;;;;;;;24.42;8.52;;;12.60;99.90;;;;;;4920007;29;20483;-93
2021/08/29 03:14:00;;;;;;;16.42;7.32;;;12.60;99.90;;;;;;4926551;29;20038;-92
2021/08/29 03:16:28;;;;;;;17.08;6.28;;;12.60;99.90;;;;;;4911584;29;20100;-92
2021/08/29 03:18:55;;;;;;;22.05;8.70;;;12.70;99.90;;;;;;4908756;29;20446;-93
2021/08/29 03:21:21;;;;;;;24.70;8.32;;;12.70;99.90;;;;;;4908152;29;20029;-93
2021/08/29 03:23:47;;;;;;;20.05;8.82;;;12.70;99.90;;;;;;4889505;29;20114;-92
2021/08/29 03:26:13;;;;;;;21.05;8.63;;;12.80;99.90;;;;;;4889400;29;20025;-92
2021/08/29 03:28:38;;;;;;;22.23;9.90;;;12.80;99.90;;;;;;4889803;29;20044;-93
2021/08/29 03:31:04;;;;;;;20.42;9.27;;;12.80;99.90;;;;;;4889140;29;20025;-92
2021/08/29 03:33:33;;;;;;;19.58;7.90;;;12.80;99.90;;;;;;4889675;29;20487;-91
2021/08/29 03:36:00;;;;;;;21.90;8.80;;;12.80;99.90;;;;;;4889797;29;20499;-92
2021/08/29 03:38:28;;;;;;;21.63;8.50;;;12.80;99.90;;;;;;4889554;29;20045;-92
2021/08/29 03:40:54;;;;;;;16.50;7.53;;;12.80;99.90;;;;;;4889426;29;20020;-92
2021/08/29 03:43:19;;;;;;;26.10;9.85;;;12.80;99.90;;;;;;4889373;29;20036;-92
2021/08/29 03:45:46;;;;;;;29.83;10.80;;;12.90;99.90;;;;;;4889383;29;20033;-93
2021/08/29 03:48:12;;;;;;;22.05;8.27;;;12.90;99.90;;;;;;4889574;29;20032;-93
2021/08/29 03:50:39;;;;;;;27.90;10.75;;;12.90;99.90;;;;;;4907226;29;20474;-94
2021/08/29 03:53:06;;;;;;;25.80;10.13;;;13.00;99.90;;;;;;4890202;29;20028;-93
2021/08/29 03:55:33;;;;;;;23.35;9.85;;;13.00;99.90;;;;;;4890288;29;20039;-92
2021/08/29 03:57:59;;;;;;;21.85;11.13;;;13.00;99.90;;;;;;4890582;29;20033;-93
2021/08/29 04:00:25;;;;;;;16.38;8.40;;;13.00;99.90;;;;;;4890099;29;20036;-93
2021/08/29 04:02:51;;;;;;;25.17;11.57;;;13.00;99.90;;;;;;4890098;29;20502;-92
2021/08/29 04:05:17;;;;;;;21.52;9.93;;;13.00;99.90;;;;;;4904916;29;20028;-92
2021/08/29 04:07:44;;;;;;;20.48;9.48;;;13.00;99.90;;;;;;4889315;29;20112;-93
2021/08/29 04:10:10;;;;;;;15.73;8.95;;;13.00;99.90;;;;;;4908630;23;20040;-92
2021/08/29 04:12:39;;;;;;;21.10;9.23;;;12.90;99.90;;;;;;4907439;29;20032;-93
2021/08/29 04:15:06;;;;;;;23.38;9.98;;;12.90;99.90;;;;;;4907685;29;20040;-92
2021/08/29 04:17:33;;;;;;;14.18;7.20;;;12.90;99.90;;;;;;4924400;29;20107;-92
2021/08/29 04:20:01;;;;;;;16.15;6.40;;;12.90;99.90;;;;;;4907144;29;20035;-92
2021/08/29 04:22:26;;;;;;;22.00;8.10;;;12.80;99.90;;;;;;4912920;29;20497;-93
2021/08/29 04:24:52;;;;;;;19.17;8.27;;;12.80;99.90;;;;;;4922821;29;20028;-93
2021/08/29 04:27:19;;;;;;;17.00;7.97;;;12.80;99.90;;;;;;4923429;29;20035;-92
2021/08/29 04:29:45;;;;;;;19.45;7.80;;;12.80;99.90;;;;;;4923415;29;20025;-93
2021/08/29 04:32:11;;;;;;;15.52;7.28;;;12.70;99.90;;;;;;4922920;29;20036;-93
2021/08/29 04:34:38;;;;;;;16.58;7.95;;;12.70;99.90;;;;;;4923350;29;20127;-92
2021/08/29 04:37:07;;;;;;;15.68;7.30;;;12.60;99.90;;;;;;4923063;29;20028;-92
2021/08/29 04:39:41;;;;;;;22.17;8.10;;;12.60;99.90;;;;;;4923281;29;20036;-92
2021/08/29 04:42:06;;;;;;;15.48;7.57;;;12.60;99.90;;;;;;4923302;29;20043;-92
2021/08/29 04:44:32;;;;;;;20.80;8.38;;;12.50;99.90;;;;;;4922880;29;20493;-92
2021/08/29 04:46:58;;;;;;;16.50;7.70;;;12.50;99.90;;;;;;4922950;29;20495;-92
2021/08/29 04:49:23;;;;;;;19.70;7.57;;;12.40;99.90;;;;;;4922677;29;20118;-93
2021/08/29 04:51:49;;;;;;;18.98;8.65;;;12.40;99.90;;;;;;4923069;29;20125;-93
2021/08/29 04:54:15;;;;;;;21.77;9.10;;;12.40;99.90;;;;;;4923115;29;20039;-92
2021/08/29 04:56:40;;;;;;;24.90;9.70;;;12.40;99.90;;;;;;4923298;29;20028;-92
2021/08/29 04:59:06;;;;;;;19.63;8.65;;;12.30;99.90;;;;;;4935298;29;20042;-93
2021/08/29 05:01:31;;;;;;;28.92;8.80;;;12.40;99.90;;;;;;4939928;29;20016;-92
2021/08/29 05:03:58;;;;;;;20.98;7.90;;;12.40;99.90;;;;;;4925770;29;20405;-92
2021/08/29 05:06:26;;;;;;;25.42;9.98;;;12.30;99.90;;;;;;4922927;29;20386;-93
2021/08/29 05:08:52;;;;;;;26.33;10.60;;;12.40;99.90;;;;;;4923166;29;20095;-93
2021/08/29 05:11:17;;;;;;;21.67;9.38;;;12.40;99.90;;;;;;4923054;29;20095;-92
2021/08/29 05:13:43;;;;;;;23.67;10.40;;;12.40;99.90;;;;;;4924224;29;20025;-93
2021/08/29 05:16:09;;;;;;;25.35;11.50;;;12.40;99.90;;;;;;4922509;29;20038;-93
2021/08/29 05:18:34;;;;;;;26.30;11.20;;;12.40;99.90;;;;;;4922397;29;20068;-91
2021/08/29 05:21:00;;;;;;;22.88;9.80;;;12.40;99.90;;;;;;4922457;29;20497;-92
2021/08/29 05:23:26;;;;;;;24.77;9.95;;;12.50;99.90;;;;;;4922115;29;20123;-92
2021/08/29 05:25:51;;;;;;;23.20;9.98;;;12.50;99.90;;;;;;4923802;29;20036;-92
2021/08/29 05:28:17;;;;;;;20.02;8.75;;;12.50;99.90;;;;;;4922486;29;20199;-92
2021/08/29 05:30:42;;;;;;;25.05;9.65;;;12.50;99.90;;;;;;4922229;29;20027;-93
2021/08/29 05:33:08;;;;;;;21.55;9.02;;;12.60;99.90;;;;;;4921904;29;20032;-92
2021/08/29 05:35:34;;;;;;;20.40;9.13;;;12.60;99.90;;;;;;4921290;29;20032;-93
2021/08/29 05:37:59;;;;;;;22.27;8.68;;;12.60;99.90;;;;;;4921920;29;20051;-92
2021/08/29 05:40:25;;;;;;;26.17;10.02;;;12.60;99.90;;;;;;4921805;29;20038;-92
2021/08/29 05:42:51;;;;;;;24.42;8.27;;;12.60;99.90;;;;;;4921967;29;20075;-92
2021/08/29 05:45:16;;;;;;;14.57;8.00;;;12.70;99.90;;;;;;4921948;29;20032;-92
2021/08/29 05:47:42;;;;;;;22.88;8.32;;;12.70;99.90;;;;;;4921655;29;20032;-92
2021/08/29 05:50:08;;;;;;;18.05;7.75;;;12.70;99.90;;;;;;4921934;29;20024;-92
2021/08/29 05:52:34;;;;;;;19.92;7.85;;;12.80;99.90;;;;;;4921845;29;20036;-92
2021/08/29 05:54:59;;;;;;;19.13;7.97;;;12.80;99.90;;;;;;4921812;29;20028;-92
2021/08/29 05:57:25;;;;;;;17.92;7.95;;;12.90;99.90;;;;;;4921353;29;20119;-92
2021/08/29 05:59:51;;;;;;;19.40;7.75;;;12.90;99.90;;;;;;4922029;29;20390;-92
2021/08/29 06:02:16;;;;;;;15.55;7.60;;;12.90;99.90;;;;;;4922200;29;20025;-92
2021/08/29 06:04:43;;;;;;;14.73;6.63;;;12.90;99.90;;;;;;4921837;29;20077;-92
2021/08/29 06:07:09;;;;;;;23.75;7.60;;;12.90;99.90;;;;;;4921842;29;20024;-92
2021/08/29 06:09:35;;;;;;;11.23;5.40;;;12.90;99.90;;;;;;4917351;29;20032;-91
2021/08/29 06:12:01;;;;;;;16.48;6.65;;;13.00;99.90;;;;;;4920097;29;20035;-93
2021/08/29 06:14:26;;;;;;;17.40;6.97;;;13.00;99.90;;;;;;4921786;29;20078;-92
2021/08/29 06:16:52;;;;;;;15.05;5.82;;;13.00;99.90;;;;;;4921244;29;20389;-93
2021/08/29 06:19:18;;;;;;;15.85;7.18;;;13.00;99.90;;;;;;4920636;29;20035;-92
2021/08/29 06:21:43;;;;;;;23.65;8.73;;;13.10;99.90;;;;;;4920602;29;20034;-92
2021/08/29 06:24:09;;;;;;;14.93;6.05;;;13.10;99.90;;;;;;4920458;29;20034;-91
2021/08/29 06:26:35;;;;;;;14.55;6.78;;;13.10;99.90;;;;;;4920167;29;20078;-91
2021/08/29 06:29:01;;;;;;;16.92;6.53;;;13.10;99.90;;;;;;4919626;29;20524;-91
2021/08/29 06:31:26;;;;;;;19.45;6.70;;;13.20;99.90;;;;;;4919711;29;20517;-92
2021/08/29 06:33:52;;;;;;;14.43;6.07;;;13.20;99.90;;;;;;4919800;29;20115;-93
2021/08/29 06:36:18;;;;;;;15.57;6.30;;;13.30;99.90;;;;;;4919957;29;20020;-92
2021/08/29 06:38:44;;;;;;;14.07;6.53;;;13.30;99.90;;;;;;4920016;29;20039;-92
2021/08/29 06:41:09;;;;;;;18.70;6.57;;;13.30;99.90;;;;;;4919942;29;20512;-92
2021/08/29 06:43:35;;;;;;;16.38;6.07;;;13.40;99.90;;;;;;4920893;29;20036;-91
2021/08/29 06:46:01;;;;;;;14.88;5.95;;;13.40;99.90;;;;;;4934231;29;20032;-92
2021/08/29 06:48:26;;;;;;;10.32;5.78;;;13.40;99.90;;;;;;4942863;29;20043;-92
2021/08/29 06:50:52;;;;;;;17.05;5.88;;;13.40;99.90;;;;;;4924032;29;20060;-92
2021/08/29 06:53:17;;;;;;;12.20;5.65;;;13.50;99.90;;;;;;4922983;29;20024;-92
2021/08/29 06:55:43;;;;;;;15.30;6.65;;;13.50;99.90;;;;;;4925005;29;20032;-92
2021/08/29 06:58:09;;;;;;;15.00;6.55;;;13.50;99.90;;;;;;4924538;29;20038;-92
2021/08/29 07:00:34;;;;;;;17.48;6.13;;;13.50;99.90;;;;;;4924251;29;20075;-92
2021/08/29 07:03:00;;;;;;;12.93;5.75;;;13.60;99.90;;;;;;4923098;29;20032;-92
2021/08/29 07:05:26;;;;;;;12.07;5.93;;;13.70;99.90;;;;;;4923002;29;20077;-91
2021/08/29 07:07:52;;;;;;;17.83;6.60;;;13.70;99.90;;;;;;4924028;29;20034;-92
2021/08/29 07:10:19;;;;;;;10.98;5.60;;;13.70;99.90;;;;;;4926063;29;20130;-92
2021/08/29 07:12:44;;;;;;;11.77;6.07;;;13.70;99.90;;;;;;4925812;29;20477;-92
2021/08/29 07:15:10;;;;;;;15.00;6.22;;;13.70;99.90;;;;;;4926794;29;20039;-92
2021/08/29 07:17:36;;;;;;;15.10;5.47;;;13.70;99.90;;;;;;4924112;29;20028;-91
2021/08/29 07:20:05;;;;;;;14.68;5.70;;;13.70;99.90;;;;;;4908444;29;20035;-92
2021/08/29 07:22:31;;;;;;;13.30;5.72;;;13.70;99.90;;;;;;4923722;29;20027;-91
2021/08/29 07:24:57;;;;;;;15.65;6.10;;;13.70;99.90;;;;;;4923456;29;20545;-92
2021/08/29 07:27:22;;;;;;;17.67;6.05;;;13.80;99.90;;;;;;4923430;29;20441;-92
2021/08/29 07:29:48;;;;;;;12.70;5.57;;;13.80;99.90;;;;;;4922599;29;20038;-92
2021/08/29 07:32:14;;;;;;;11.82;5.10;;;13.80;99.90;;;;;;4922775;29;20036;-92
2021/08/29 07:34:40;;;;;;;12.40;5.50;;;13.90;99.90;;;;;;4923323;29;20393;-91
2021/08/29 07:37:09;;;;;;;14.80;5.95;;;13.90;99.90;;;;;;4911681;29;20027;-92
2021/08/29 07:39:35;;;;;;;13.23;5.90;;;14.00;99.90;;;;;;4923514;29;20042;-92
2021/08/29 07:42:00;;;;;;;11.48;5.25;;;14.10;99.90;;;;;;4922761;29;20035;-92
2021/08/29 07:44:26;;;;;;;13.20;4.97;;;14.10;99.90;;;;;;4922681;29;20040;-91
2021/08/29 07:46:52;;;;;;;14.13;5.50;;;14.10;99.90;;;;;;4939466;29;20028;-91
2021/08/29 07:49:18;;;;;;;9.80;5.07;;;14.20;99.90;;;;;;4922192;29;20552;-92
2021/08/29 07:51:43;;;;;;;11.32;4.60;;;14.20;99.90;;;;;;4921416;29;20020;-92
2021/08/29 07:54:14;;;;;;;13.48;5.55;;;14.30;99.90;;;;;;4921524;29;20552;-92
2021/08/29 07:56:39;;;;;;;7.68;4.43;;;14.30;99.90;;;;;;4921453;29;20397;-92
2021/08/29 07:59:05;;;;;;;11.38;5.13;;;14.40;99.90;;;;;;4921409;29;20040;-92
2021/08/29 08:01:31;;;;;;;11.50;4.43;;;14.50;99.90;;;;;;4921116;29;20122;-91
2021/08/29 08:03:56;;;;;;;17.20;4.78;;;14.50;99.90;;;;;;4921428;29;20043;-92
2021/08/29 08:06:32;;;;;;;13.13;4.43;;;14.60;99.90;;;;;;4921584;29;20023;-92
2021/08/29 08:09:01;;;;;;;8.75;4.43;;;14.60;99.90;;;;;;4918551;29;20036;-92
2021/08/29 08:11:27;;;;;;;11.82;4.30;;;14.70;99.90;;;;;;4921073;29;20059;-92
2021/08/29 08:13:52;;;;;;;9.85;4.20;;;14.80;99.90;;;;;;4921406;29;20087;-94
2021/08/29 08:16:18;;;;;;;15.13;5.35;;;14.90;99.90;;;;;;4938395;29;20035;-94
2021/08/29 08:18:46;;;;;;;7.55;3.85;;;15.00;99.90;;;;;;4921320;29;20047;-94
2021/08/29 08:21:12;;;;;;;9.90;4.43;;;15.00;99.90;;;;;;4921562;29;20027;-93
2021/08/29 08:23:37;;;;;;;6.03;3.72;;;15.10;99.90;;;;;;4922112;29;20079;-93
2021/08/29 08:26:03;;;;;;;7.90;3.70;;;15.10;99.90;;;;;;4921522;29;20030;-93
2021/08/29 08:28:29;;;;;;;8.95;3.28;;;15.20;99.90;;;;;;4921638;29;20059;-93
2021/08/29 08:30:54;;;;;;;9.48;3.90;;;15.20;99.90;;;;;;4922790;29;20027;-93
2021/08/29 08:33:20;;;;;;;6.88;3.35;;;15.20;99.90;;;;;;4922409;29;20039;-94
2021/08/29 08:35:46;;;;;;;7.65;3.35;;;15.30;99.90;;;;;;4927503;29;20023;-93
2021/08/29 08:38:11;;;;;;;5.57;3.40;;;15.30;99.90;;;;;;4939330;29;20063;-93
2021/08/29 08:40:40;;;;;;;8.07;3.55;;;15.20;99.90;;;;;;4927168;29;20134;-93
2021/08/29 08:43:05;;;;;;;6.80;3.28;;;15.30;99.90;;;;;;4921335;29;20024;-93
2021/08/29 08:45:33;;;;;;;9.48;3.28;;;15.20;99.90;;;;;;4921907;29;20031;-94
2021/08/29 08:48:03;;;;;;;8.43;2.95;;;15.20;99.90;;;;;;4920922;29;20024;-94
2021/08/29 08:50:36;;;;;;;5.18;3.03;;;15.20;99.90;;;;;;4920542;29;20027;-93
2021/08/29 08:53:04;;;;;;;7.88;2.80;;;15.20;99.90;;;;;;4920825;29;20280;-93
2021/08/29 08:55:39;;;;;;;7.22;2.90;;;15.20;99.90;;;;;;4920710;29;20043;-93
2021/08/29 08:58:08;;;;;;;8.10;3.03;;;15.20;99.90;;;;;;4922051;29;20028;-93
2021/08/29 09:01:17;;;;;;;;;;;;;;;;;;;;;
2021/08/29 09:03:26;;;;;;;12.43;3.40;;;15.20;99.90;;;;;;4931825;29;20100;-93
2021/08/29 09:05:55;;;;;;;10.77;2.83;;;15.20;99.90;;;;;;4922643;29;20091;-93
2021/08/29 09:08:21;;;;;;;6.88;3.22;;;15.30;99.90;;;;;;4922819;29;20039;-93
2021/08/29 09:10:49;;;;;;;8.40;2.75;;;15.30;99.90;;;;;;4921416;29;20430;-93
2021/08/29 09:13:15;;;;;;;8.40;2.88;;;15.30;99.90;;;;;;4923753;29;20039;-93
2021/08/29 09:15:40;;;;;;;7.18;3.28;;;15.40;99.90;;;;;;4921935;29;20082;-93
2021/08/29 09:18:13;;;;;;;5.80;2.95;;;15.30;99.90;;;;;;4920767;29;20038;-92
2021/08/29 09:20:40;;;;;;;6.45;3.15;;;15.30;99.90;;;;;;4921300;29;20031;-94
2021/08/29 09:23:15;;;;;;;7.72;2.83;;;15.30;99.90;;;;;;4920912;29;20027;-93
2021/08/29 09:25:43;;;;;;;6.47;3.03;;;15.40;99.90;;;;;;4920660;29;20047;-92
2021/08/29 09:28:14;;;;;;;7.13;3.60;;;15.40;99.90;;;;;;4920751;29;20027;-92
2021/08/29 09:30:42;;;;;;;8.10;3.50;;;15.40;99.50;;;;;;4920109;29;20028;-93
2021/08/29 09:33:10;;;;;;;10.25;2.85;;;15.40;99.50;;;;;;4920143;29;20500;-93
2021/08/29 09:35:36;;;;;;;8.90;3.30;;;15.40;99.50;;;;;;4920830;29;20019;-92
2021/08/29 09:38:04;;;;;;;8.25;3.17;;;15.40;99.50;;;;;;4920622;29;20090;-92
2021/08/29 09:40:31;;;;;;;6.45;3.63;;;15.40;99.50;;;;;;4920859;29;20110;-93
2021/08/29 09:43:00;;;;;;;5.95;2.72;;;15.40;99.40;;;;;;4920359;29;20047;-92
2021/08/29 09:45:34;;;;;;;8.65;3.25;;;15.50;99.20;;;;;;4920776;29;20051;-92
2021/08/29 09:48:02;;;;;;;7.78;3.83;;;15.50;99.00;;;;;;4920336;29;20035;-92
2021/08/29 09:50:33;;;;;;;5.93;3.15;;;15.50;98.80;;;;;;4920943;29;20020;-92
2021/08/29 09:53:09;;;;;;;7.70;3.17;;;15.50;98.70;;;;;;4922900;29;20032;-91
2021/08/29 09:55:43;;;;;;;8.25;3.03;;;15.40;98.50;;;;;;4920921;29;20035;-91
2021/08/29 09:58:24;;;;;;;6.55;2.97;;;15.40;98.60;;;;;;4921070;29;20087;-91
2021/08/29 10:01:08;;;;;;;;;;;15.40;98.70;;;;;;4920608;29;20110;-91
2021/08/29 10:03:38;;;;;;;5.78;2.67;;;15.40;98.80;;;;;;4919695;29;19914;-91
2021/08/29 10:06:20;;;;;;;7.03;3.17;;;15.40;98.80;;;;;;4919222;29;20027;-92
2021/08/29 10:08:47;;;;;;;8.40;2.55;;;15.30;98.80;;;;;;4919540;29;20039;-92
2021/08/29 10:11:13;;;;;;;8.40;2.70;;;15.30;98.90;;;;;;4919731;29;20486;-91
2021/08/29 10:13:40;;;;;;;6.07;2.65;;;15.30;98.90;;;;;;4936623;29;20489;-91
2021/08/29 10:16:06;;;;;;;6.38;2.80;;;15.30;99.00;;;;;;4919716;29;20028;-91
2021/08/29 10:18:36;;;;;;;6.05;2.80;;;15.30;99.10;;;;;;4919335;29;20065;-90
2021/08/29 10:21:11;;;;;;;9.43;2.97;;;15.40;99.00;;;;;;4920560;29;20034;-93
2021/08/29 10:23:42;;;;;;;7.72;3.00;;;15.40;99.10;;;;;;4929966;29;20127;-92
2021/08/29 10:26:10;;;;;;;6.20;2.60;;;15.40;99.10;;;;;;4943813;29;20032;-92
2021/08/29 10:28:46;;;;;;;7.25;3.08;;;15.40;99.00;;;;;;4927394;29;20122;-92
2021/08/29 10:31:15;;;;;;;7.95;2.80;;;15.50;99.00;;;;;;4923308;29;20058;-91
2021/08/29 10:33:47;;;;;;;8.43;2.97;;;15.40;98.80;;;;;;4923127;29;20497;-91
2021/08/29 10:36:18;;;;;;;6.43;3.55;;;15.40;98.90;;;;;;4923110;29;20028;-91
2021/08/29 10:38:46;;;;;;;9.20;3.60;;;15.50;98.90;;;;;;4922874;29;20063;-91
2021/08/29 10:41:16;;;;;;;5.88;3.38;;;15.40;98.70;;;;;;4923041;29;20028;-91
2021/08/29 10:43:43;;;;;;;8.80;3.60;;;15.40;98.70;;;;;;4923802;29;20425;-92
2021/08/29 10:46:10;;;;;;;5.30;2.85;;;15.40;98.60;;;;;;4923041;29;20031;-91
2021/08/29 10:48:42;;;;;;;9.68;4.00;;;15.40;98.50;;;;;;4923142;29;20035;-91
2021/08/29 10:51:10;;;;;;;9.20;4.20;;;15.50;98.50;;;;;;4922998;29;20034;-91
2021/08/29 10:53:40;;;;;;;7.30;3.40;;;15.50;98.40;;;;;;4922853;29;20091;-91
2021/08/29 10:56:14;;;;;;;9.85;3.22;;;15.50;98.50;;;;;;4922813;29;20036;-91
2021/08/29 10:58:45;;;;;;;9.20;3.38;;;15.50;98.60;;;;;;4922643;29;20036;-93
2021/08/29 11:01:42;;;;;;;9.35;4.20;;;15.60;98.30;;;;;;4923057;29;20498;-91
2021/08/29 11:04:25;;;;;;;10.00;3.53;;;15.60;98.20;;;;;;4922336;29;20038;-93
2021/08/29 11:06:55;;;;;;;8.45;3.60;;;15.60;98.30;;;;;;4922495;29;20024;-91
2021/08/29 11:09:36;;;;;;;5.57;3.03;;;15.70;98.10;;;;;;4922704;29;20489;-92
2021/08/29 11:12:28;;;;;;;8.82;3.42;;;15.70;97.90;;;;;;4922766;29;20052;-90
2021/08/29 11:14:59;;;;;;;7.43;3.13;;;15.80;97.60;;;;;;4922351;29;20383;-91
2021/08/29 11:17:29;;;;;;;10.02;3.30;;;15.90;97.40;;;;;;4922272;29;20031;-91
2021/08/29 11:20:01;;;;;;;9.50;3.13;;;15.90;97.20;;;;;;4922105;29;20396;-91
2021/08/29 11:22:34;;;;;;;10.15;4.07;;;15.90;97.10;;;;;;4922363;29;20478;-91
2021/08/29 11:25:09;;;;;;;10.77;3.65;;;16.00;97.00;;;;;;4922005;29;20027;-91
2021/08/29 11:27:35;;;;;;;7.93;2.97;;;16.00;96.70;;;;;;4922944;29;20036;-92
2021/08/29 11:30:10;;;;;;;8.90;3.47;;;16.10;96.70;;;;;;4922703;29;20119;-90
2021/08/29 11:32:47;;;;;;;10.70;3.50;;;16.10;96.60;;;;;;4921955;29;20024;-91
2021/08/29 11:35:23;;;;;;;9.65;4.10;;;16.10;96.60;;;;;;4922782;29;20148;-91
2021/08/29 11:38:18;;;;;;;9.30;3.60;;;16.20;96.40;;;;;;4923522;29;20028;-92
2021/08/29 11:40:45;;;;;;;8.07;3.63;;;16.20;96.30;;;;;;4922642;29;20028;-92
2021/08/29 11:43:28;;;;;;;11.93;5.22;;;16.20;96.20;;;;;;4922258;29;20035;-92
2021/08/29 11:46:11;;;;;;;6.93;3.13;;;16.20;96.00;;;;;;4922146;29;20032;-92
2021/08/29 11:48:50;;;;;;;7.57;4.13;;;16.30;95.80;;;;;;4921621;29;20070;-92
2021/08/29 11:51:27;;;;;;;11.40;4.15;;;16.30;95.70;;;;;;4921848;29;20027;-93
2021/08/29 11:53:53;;;;;;;6.57;3.53;;;16.30;95.70;;;;;;4921568;29;20395;-92
2021/08/29 11:56:22;;;;;;;8.70;3.95;;;16.40;96.00;;;;;;4922329;29;20116;-92
2021/08/29 11:58:48;;;;;;;13.00;4.43;;;16.40;95.60;;;;;;4921582;29;20040;-92
2021/08/29 12:01:15;;;;;;;8.13;3.72;;;16.60;95.60;;;;;;4921697;29;20036;-91
2021/08/29 12:03:42;;;;;;;9.80;4.38;;;16.70;95.40;;;;;;4921581;29;20028;-93
2021/08/29 12:06:19;;;;;;;8.25;4.00;;;16.80;95.20;;;;;;4921906;29;20027;-92
2021/08/29 12:09:06;;;;;;;10.35;4.07;;;16.90;95.00;;;;;;4923755;29;20051;-92
2021/08/29 12:11:36;;;;;;;13.07;4.00;;;17.00;94.80;;;;;;4932858;29;20046;-92
2021/08/29 12:14:20;;;;;;;8.07;3.87;;;17.20;94.60;;;;;;4940432;29;20079;-92
2021/08/29 12:16:52;;;;;;;9.43;3.92;;;17.20;94.20;;;;;;4923139;29;20090;-92
2021/08/29 12:19:20;;;;;;;10.68;4.35;;;17.20;94.20;;;;;;4922066;29;20043;-92
2021/08/29 12:21:47;;;;;;;8.60;4.20;;;17.30;94.00;;;;;;4920948;29;20030;-93
2021/08/29 12:24:14;;;;;;;8.85;3.50;;;17.30;93.70;;;;;;4921178;29;20035;-91
2021/08/29 12:26:40;;;;;;;7.88;3.90;;;17.20;93.50;;;;;;4920937;29;20031;-92
2021/08/29 12:29:07;;;;;;;9.65;4.32;;;17.20;93.50;;;;;;4921169;29;20032;-93
2021/08/29 12:31:40;;;;;;;10.73;3.60;;;17.20;93.50;;;;;;4920924;29;20113;-92
2021/08/29 12:34:08;;;;;;;11.25;4.78;;;17.10;93.40;;;;;;4920777;29;20024;-93
2021/08/29 12:36:37;;;;;;;12.88;4.40;;;17.10;93.50;;;;;;4920731;29;20027;-92
2021/08/29 12:39:10;;;;;;;10.13;4.68;;;17.20;93.60;;;;;;4920420;29;20047;-93
2021/08/29 12:41:37;;;;;;;7.90;4.32;;;17.20;93.50;;;;;;4920691;29;20615;-93
2021/08/29 12:44:06;;;;;;;12.02;4.68;;;17.30;93.40;;;;;;4920194;29;20032;-92
2021/08/29 12:46:32;;;;;;;9.15;4.30;;;17.40;93.20;;;;;;4920164;29;20055;-92